createdAt,value
2019-03-20T00:03:14.920Z,17.30
2019-03-20T00:07:24.104Z,16.03
2019-03-20T00:11:32.358Z,22.00
2019-03-20T00:15:40.183Z,23.07
2019-03-20T00:19:47.988Z,27.00
2019-03-20T00:23:55.686Z,43.20
2019-03-20T00:28:03.537Z,19.73
2019-03-20T00:32:11.566Z,16.53
2019-03-20T00:36:19.318Z,14.87
2019-03-20T00:40:27.005Z,17.53
2019-03-20T00:44:34.691Z,14.23
2019-03-20T00:48:42.701Z,11.80
2019-03-20T00:52:50.961Z,13.57
2019-03-20T00:56:58.998Z,12.90
2019-03-20T01:01:06.824Z,13.07
2019-03-20T01:05:15.397Z,22.00
2019-03-20T01:09:23.744Z,14.13
2019-03-20T01:13:31.316Z,19.43
2019-03-20T01:17:39.429Z,15.73
2019-03-20T01:21:47.603Z,17.00
2019-03-20T01:25:56.249Z,10.67
2019-03-20T01:30:05.063Z,12.00
2019-03-20T01:34:12.776Z,12.23
2019-03-20T01:38:21.499Z,16.13
2019-03-20T01:42:29.296Z,12.77
2019-03-20T01:46:37.084Z,9.73
2019-03-20T01:50:44.857Z,12.30
2019-03-20T01:54:52.557Z,13.23
2019-03-20T01:59:00.335Z,12.03
2019-03-20T02:03:08.488Z,10.33
2019-03-20T02:07:16.906Z,11.97
2019-03-20T02:11:24.581Z,13.27
2019-03-20T02:15:38.932Z,13.87
2019-03-20T02:19:42.228Z,18.60
2019-03-20T02:23:49.895Z,13.97
2019-03-20T02:27:58.696Z,15.13
2019-03-20T02:32:06.430Z,24.60
2019-03-20T02:36:14.079Z,21.77
2019-03-20T02:40:22.249Z,30.30
2019-03-20T02:44:29.967Z,14.87
2019-03-20T02:48:37.733Z,12.73
2019-03-20T02:52:45.842Z,14.80
2019-03-20T02:56:53.491Z,15.93
2019-03-20T03:01:01.355Z,20.50
2019-03-20T03:05:10.051Z,13.80
2019-03-20T03:09:17.751Z,11.17
2019-03-20T03:13:25.761Z,12.30
2019-03-20T03:17:33.976Z,11.07
2019-03-20T03:21:41.662Z,15.10
2019-03-20T03:25:50.256Z,14.37
2019-03-20T03:29:58.366Z,13.47
2019-03-20T03:34:06.148Z,11.53
2019-03-20T03:38:14.429Z,16.47
2019-03-20T03:42:22.251Z,20.40
2019-03-20T03:46:29.959Z,22.10
2019-03-20T03:50:38.411Z,24.07
2019-03-20T03:54:46.510Z,23.30
2019-03-20T04:25:47.946Z,21.30
2019-03-20T04:29:56.974Z,26.80
2019-03-20T04:34:04.921Z,18.63
2019-03-20T04:38:12.836Z,26.23
2019-03-20T04:42:20.647Z,18.90
2019-03-20T04:46:28.347Z,19.90
2019-03-20T04:50:36.361Z,19.27
2019-03-20T04:54:43.964Z,22.50
2019-03-20T04:58:52.194Z,23.27
2019-03-20T05:03:01.060Z,34.73
2019-03-20T05:07:08.972Z,30.00
2019-03-20T05:11:16.974Z,30.13
2019-03-20T05:15:25.249Z,29.47
2019-03-20T05:19:32.970Z,18.87
2019-03-20T05:23:40.766Z,23.90
2019-03-20T05:27:48.675Z,35.27
2019-03-20T05:31:56.638Z,25.03
2019-03-20T05:36:05.043Z,28.43
2019-03-20T05:40:13.380Z,26.97
2019-03-20T05:44:21.151Z,26.33
2019-03-20T05:48:29.310Z,27.93
2019-03-20T05:52:36.935Z,26.93
2019-03-20T05:56:45.087Z,27.10
2019-03-20T06:00:53.305Z,30.90
2019-03-20T06:05:01.225Z,29.13
2019-03-20T06:09:09.460Z,19.30
2019-03-20T06:13:17.196Z,13.53
2019-03-20T06:17:25.059Z,19.93
2019-03-20T06:21:32.973Z,14.27
2019-03-20T06:25:40.598Z,18.20
2019-03-20T06:29:48.585Z,11.93
2019-03-20T06:33:56.404Z,13.03
2019-03-20T06:38:04.307Z,15.90
2019-03-20T06:42:12.571Z,18.03
2019-03-20T06:46:20.854Z,18.27
2019-03-20T06:50:28.648Z,15.00
2019-03-20T06:54:36.476Z,19.60
2019-03-20T06:58:44.287Z,15.50
2019-03-20T07:02:52.100Z,14.77
2019-03-20T07:07:15.345Z,17.20
2019-03-20T07:11:20.824Z,12.87
2019-03-20T07:15:29.159Z,13.37
2019-03-20T07:19:36.877Z,12.57
2019-03-20T07:23:44.767Z,10.93
2019-03-20T07:27:52.582Z,16.10
2019-03-20T07:32:00.408Z,18.90
2019-03-20T07:36:08.288Z,16.47
2019-03-20T07:40:16.727Z,13.53
2019-03-20T07:44:25.389Z,13.23
2019-03-20T07:48:33.598Z,12.80
2019-03-20T07:52:41.549Z,16.60
2019-03-20T07:56:49.995Z,10.67
2019-03-20T08:00:58.057Z,9.77
2019-03-20T08:05:06.527Z,10.80
2019-03-20T08:09:15.481Z,10.13
2019-03-20T08:13:23.637Z,11.93
2019-03-20T08:17:31.318Z,11.83
2019-03-20T08:21:39.629Z,9.90
2019-03-20T08:25:47.372Z,13.80
2019-03-20T08:29:56.015Z,13.70
2019-03-20T08:34:04.083Z,9.63
2019-03-20T08:38:18.338Z,10.13
2019-03-20T08:42:22.506Z,8.87
2019-03-20T08:46:30.552Z,10.97
2019-03-20T08:50:38.433Z,9.73
2019-03-20T08:54:46.639Z,7.97
2019-03-20T08:58:54.438Z,5.63
2019-03-20T09:03:02.233Z,8.63
2019-03-20T09:07:09.973Z,8.70
2019-03-20T09:11:18.278Z,6.70
2019-03-20T09:15:26.198Z,10.03
2019-03-20T09:19:34.401Z,15.07
2019-03-20T09:23:42.344Z,13.07
2019-03-20T09:27:50.123Z,9.90
2019-03-20T09:31:58.349Z,9.83
2019-03-20T09:36:06.186Z,9.27
2019-03-20T09:40:15.350Z,5.93
2019-03-20T09:44:23.554Z,8.23
2019-03-20T09:48:31.729Z,14.47
2019-03-20T09:52:39.962Z,9.27
2019-03-20T09:56:48.202Z,6.47
2019-03-20T10:00:55.887Z,7.60
2019-03-20T10:05:03.752Z,20.50
2019-03-20T10:09:11.641Z,13.93
2019-03-20T10:13:19.065Z,13.83
2019-03-20T10:17:27.347Z,10.17
2019-03-20T10:21:35.517Z,14.70
2019-03-20T10:25:44.749Z,11.57
2019-03-20T10:29:53.081Z,13.73
2019-03-20T10:34:00.729Z,6.97
2019-03-20T10:38:08.478Z,5.50
2019-03-20T10:42:16.483Z,7.37
2019-03-20T10:46:24.104Z,9.07
2019-03-20T10:50:31.901Z,12.73
2019-03-20T10:54:39.992Z,8.60
2019-03-20T10:58:47.720Z,13.63
2019-03-20T11:02:56.096Z,10.90
2019-03-20T11:07:04.154Z,9.83
2019-03-20T11:11:11.927Z,11.33
2019-03-20T11:15:19.983Z,11.97
2019-03-20T11:19:27.756Z,10.67
2019-03-20T11:23:35.702Z,15.53
2019-03-20T11:27:43.863Z,9.70
2019-03-20T11:31:51.721Z,15.13
2019-03-20T11:35:59.542Z,9.43
2019-03-20T11:40:09.429Z,13.60
2019-03-20T11:44:17.397Z,10.10
2019-03-20T11:48:26.216Z,11.30
2019-03-20T11:52:35.788Z,9.40
2019-03-20T11:56:43.591Z,9.03
2019-03-20T12:00:51.228Z,14.43
2019-03-20T12:04:58.909Z,10.37
2019-03-20T12:09:09.714Z,14.60
2019-03-20T12:13:17.510Z,17.17
2019-03-20T12:17:25.490Z,16.93
2019-03-20T12:21:33.694Z,14.73
2019-03-20T12:25:41.425Z,19.07
2019-03-20T12:29:49.131Z,17.90
2019-03-20T12:33:57.137Z,10.87
2019-03-20T12:38:14.225Z,16.43
2019-03-20T12:42:15.347Z,16.80
2019-03-20T12:46:23.544Z,15.20
2019-03-20T12:50:31.473Z,14.87
2019-03-20T12:54:39.784Z,10.80
2019-03-20T12:58:47.515Z,14.80
2019-03-20T13:02:55.410Z,11.27
2019-03-20T13:07:03.209Z,10.93
2019-03-20T13:11:10.965Z,24.63
2019-03-20T13:15:20.508Z,10.43
2019-03-20T13:19:28.774Z,19.33
2019-03-20T13:23:36.596Z,13.17
2019-03-20T13:27:44.425Z,12.53
2019-03-20T13:31:52.210Z,9.63
2019-03-20T13:35:59.936Z,9.23
2019-03-20T13:40:14.463Z,6.90
2019-03-20T13:44:17.493Z,15.30
2019-03-20T13:48:25.178Z,9.83
2019-03-20T13:52:33.242Z,12.03
2019-03-20T13:56:40.937Z,11.47
2019-03-20T14:00:49.757Z,10.93
2019-03-20T14:04:57.383Z,10.03
2019-03-20T14:09:07.491Z,9.50
2019-03-20T14:13:15.433Z,7.40
2019-03-20T14:17:23.679Z,9.53
2019-03-20T14:21:31.291Z,15.03
2019-03-20T14:25:39.100Z,12.57
2019-03-20T14:29:47.289Z,14.50
2019-03-20T14:33:55.197Z,8.83
2019-03-20T14:38:03.037Z,18.57
2019-03-20T14:42:11.322Z,13.03
2019-03-20T14:46:19.147Z,13.53
2019-03-20T14:50:27.683Z,12.87
2019-03-20T14:54:35.971Z,33.53
2019-03-20T14:58:43.831Z,10.63
2019-03-20T15:02:52.100Z,9.50
2019-03-20T15:06:59.830Z,12.33
2019-03-20T15:11:07.553Z,39.10
2019-03-20T15:15:31.164Z,20.53
2019-03-20T15:19:39.074Z,22.03
2019-03-20T15:23:46.671Z,28.93
2019-03-20T15:27:54.559Z,32.77
2019-03-20T15:32:02.259Z,35.57
2019-03-20T15:36:10.538Z,30.47
2019-03-20T15:40:18.704Z,32.83
2019-03-20T15:44:26.617Z,31.40
2019-03-20T15:48:34.721Z,23.30
2019-03-20T15:52:42.565Z,12.77
2019-03-20T15:56:50.619Z,13.30
2019-03-20T16:00:58.873Z,14.90
2019-03-20T16:05:08.222Z,12.17
2019-03-20T16:09:15.917Z,13.10
2019-03-20T16:13:24.150Z,17.70
2019-03-20T16:17:32.064Z,10.77
2019-03-20T16:21:39.767Z,10.13
2019-03-20T16:25:47.440Z,13.37
2019-03-20T16:29:55.390Z,16.40
2019-03-20T16:34:03.233Z,8.03
2019-03-20T16:38:11.028Z,7.57
2019-03-20T16:42:18.646Z,25.60
2019-03-20T16:46:26.496Z,39.40
2019-03-20T16:50:34.357Z,21.50
2019-03-20T16:54:42.043Z,17.27
2019-03-20T16:58:50.163Z,15.07
2019-03-20T17:02:58.203Z,14.90
2019-03-20T17:07:06.191Z,16.23
2019-03-20T17:11:14.060Z,12.93
2019-03-20T17:15:23.595Z,22.80
2019-03-20T17:19:31.577Z,25.07
2019-03-20T17:23:39.513Z,40.23
2019-03-20T17:27:47.433Z,32.67
2019-03-20T17:31:55.434Z,39.30
2019-03-20T17:36:03.377Z,32.80
2019-03-20T17:40:12.506Z,54.47
2019-03-20T17:44:20.481Z,26.23
2019-03-20T17:48:28.614Z,21.60
2019-03-20T17:52:37.652Z,32.03
2019-03-20T17:56:45.495Z,12.73
2019-03-20T18:00:53.776Z,18.97
2019-03-20T18:05:02.758Z,33.53
2019-03-20T18:09:11.565Z,48.27
2019-03-20T18:13:19.273Z,19.40
2019-03-20T18:17:26.966Z,21.27
2019-03-20T18:21:34.650Z,27.00
2019-03-20T18:25:42.563Z,24.70
2019-03-20T18:29:50.313Z,12.93
2019-03-20T18:33:58.095Z,15.83
2019-03-20T18:38:07.359Z,24.17
2019-03-20T18:42:17.467Z,24.03
2019-03-20T18:46:25.317Z,26.50
2019-03-20T18:50:34.446Z,20.90
2019-03-20T18:54:42.372Z,32.60
2019-03-20T18:58:50.498Z,21.07
2019-03-20T19:02:58.410Z,24.17
2019-03-20T19:07:06.211Z,17.27
2019-03-20T19:11:14.028Z,24.13
2019-03-20T19:15:21.916Z,18.17
2019-03-20T19:19:29.544Z,14.10
2019-03-20T19:23:37.513Z,19.60
2019-03-20T19:27:45.662Z,21.87
2019-03-20T19:31:55.661Z,14.50
2019-03-20T19:36:03.045Z,19.57
2019-03-20T19:40:11.982Z,23.03
2019-03-20T19:44:19.689Z,21.43
2019-03-20T19:48:29.560Z,25.97
2019-03-20T19:52:37.336Z,30.87
2019-03-20T19:56:45.150Z,21.87
2019-03-20T20:00:55.384Z,23.17
2019-03-20T20:05:03.317Z,20.60
2019-03-20T20:09:12.047Z,23.27
2019-03-20T20:13:19.854Z,26.53
2019-03-20T20:17:27.772Z,31.80
2019-03-20T20:21:35.906Z,28.93
2019-03-20T20:25:43.500Z,28.63
2019-03-20T20:29:51.309Z,28.47
2019-03-20T20:33:59.120Z,22.83
2019-03-20T20:38:08.569Z,22.27
2019-03-20T20:42:16.891Z,22.20
2019-03-20T20:46:24.586Z,24.70
2019-03-20T20:50:32.219Z,25.77
2019-03-20T20:54:40.339Z,22.80
2019-03-20T20:58:47.934Z,21.33
2019-03-20T21:02:56.275Z,19.30
2019-03-20T21:07:04.589Z,25.33
2019-03-20T21:11:12.267Z,23.80
2019-03-20T21:15:40.936Z,23.30
2019-03-20T21:19:49.191Z,24.80
2019-03-20T21:24:23.753Z,24.00
2019-03-20T21:28:58.177Z,26.83
2019-03-20T21:33:07.308Z,21.53
2019-03-20T21:37:46.652Z,23.27
2019-03-20T21:42:41.442Z,25.43
2019-03-20T21:47:14.870Z,25.63
2019-03-20T21:51:23.509Z,28.17
2019-03-20T21:56:24.438Z,28.10
2019-03-20T22:01:11.280Z,29.70
2019-03-20T22:05:50.127Z,31.50
2019-03-20T22:10:34.365Z,26.60
2019-03-20T22:14:44.436Z,21.17
2019-03-20T22:19:21.442Z,30.07
2019-03-20T22:23:51.778Z,24.97
2019-03-20T22:28:26.410Z,28.77
2019-03-20T22:33:30.650Z,26.03
2019-03-20T22:37:38.892Z,23.80
2019-03-20T22:42:18.327Z,26.27
2019-03-20T22:47:25.531Z,23.00
2019-03-20T22:52:09.685Z,29.97
2019-03-20T22:56:50.974Z,28.47
2019-03-20T23:00:59.591Z,26.33
2019-03-20T23:05:10.272Z,30.43
2019-03-20T23:09:19.723Z,30.13
2019-03-20T23:13:28.070Z,32.30
2019-03-20T23:17:36.888Z,44.27
2019-03-20T23:21:45.322Z,36.67
2019-03-20T23:25:53.637Z,23.80
2019-03-20T23:30:03.101Z,25.37
2019-03-20T23:34:12.995Z,21.93
2019-03-20T23:38:21.476Z,28.23
2019-03-20T23:42:30.343Z,26.37
2019-03-20T23:46:39.732Z,28.70
2019-03-20T23:50:48.880Z,18.03
2019-03-20T23:54:58.124Z,23.37
2019-03-20T23:59:06.855Z,17.50
